createdAt,value
2022-12-02T00:00:49.715Z,102332.56
2022-12-02T00:03:19.609Z,102341.97
2022-12-02T00:05:48.886Z,102336.84
2022-12-02T00:08:24.437Z,102331.63
2022-12-02T00:10:53.220Z,102341.88
2022-12-02T00:13:24.273Z,102332.44
2022-12-02T00:15:59.044Z,102331.50
2022-12-02T00:18:26.579Z,102328.94
2022-12-02T00:20:53.455Z,102334.09
2022-12-02T00:23:20.394Z,102331.56
2022-12-02T00:25:53.599Z,102319.47
2022-12-02T00:28:20.890Z,102316.03
2022-12-02T00:30:47.411Z,102318.59
2022-12-02T00:33:18.317Z,102314.38
2022-12-02T00:35:44.962Z,102308.41
2022-12-02T00:38:11.462Z,102310.16
2022-12-02T00:40:37.971Z,102308.41
2022-12-02T00:43:23.473Z,102304.94
2022-12-02T00:46:08.363Z,102309.19
2022-12-02T00:48:35.717Z,102308.34
2022-12-02T00:51:03.146Z,102307.50
2022-12-02T00:53:30.046Z,102297.22
2022-12-02T00:55:56.650Z,102295.41
2022-12-02T00:58:23.120Z,102294.53
2022-12-02T01:00:49.928Z,102300.53
2022-12-02T01:03:16.955Z,102298.81
2022-12-02T01:05:43.470Z,102279.97
2022-12-02T01:08:10.147Z,102285.09
2022-12-02T01:10:36.747Z,102282.53
2022-12-02T01:13:03.339Z,102279.09
2022-12-02T01:15:29.883Z,102287.69
2022-12-02T01:17:58.649Z,102273.06
2022-12-02T01:20:25.213Z,102274.75
2022-12-02T01:22:51.791Z,102278.25
2022-12-02T01:25:18.440Z,102277.34
2022-12-02T01:27:45.089Z,102268.81
2022-12-02T01:30:12.541Z,102273.03
2022-12-02T01:32:39.048Z,102277.31
2022-12-02T01:35:06.145Z,102273.06
2022-12-02T01:37:32.803Z,102286.72
2022-12-02T01:39:59.336Z,102280.69
2022-12-02T01:42:26.295Z,102278.13
2022-12-02T01:44:53.243Z,102285.03
2022-12-02T01:47:20.077Z,102285.78
2022-12-02T01:49:46.690Z,102290.09
2022-12-02T01:52:13.268Z,102290.16
2022-12-02T01:54:39.878Z,102283.25
2022-12-02T01:57:11.352Z,102282.47
2022-12-02T01:59:39.035Z,102284.22
2022-12-02T02:02:28.547Z,102281.66
2022-12-02T02:04:59.318Z,102286.81
2022-12-02T02:07:27.340Z,102280.88
2022-12-02T02:09:54.878Z,102280.03
2022-12-02T02:12:22.741Z,102274.03
2022-12-02T02:14:49.770Z,102282.56
2022-12-02T02:17:17.103Z,102273.16
2022-12-02T02:19:44.341Z,102260.31
2022-12-02T02:22:20.970Z,102264.59
2022-12-02T02:24:50.486Z,102266.31
2022-12-02T02:27:18.802Z,102255.16
2022-12-02T02:29:45.635Z,102258.53
2022-12-02T02:32:12.406Z,102255.09
2022-12-02T02:34:39.157Z,102245.66
2022-12-02T02:37:08.010Z,102246.47
2022-12-02T02:39:34.799Z,102238.81
2022-12-02T02:42:01.698Z,102237.97
2022-12-02T02:44:29.521Z,102232.84
2022-12-02T02:46:57.465Z,102234.59
2022-12-02T02:49:24.156Z,102243.16
2022-12-02T02:51:50.865Z,102238.00
2022-12-02T02:54:17.418Z,102239.75
2022-12-02T02:56:44.017Z,102240.66
2022-12-02T02:59:14.409Z,102242.38
2022-12-02T03:01:42.887Z,102227.81
2022-12-02T03:04:13.575Z,102230.41
2022-12-02T03:06:42.159Z,102225.22
2022-12-02T03:09:12.651Z,102227.69
2022-12-02T03:11:40.702Z,102219.97
2022-12-02T03:14:15.383Z,102222.53
2022-12-02T03:16:43.117Z,102220.78
2022-12-02T03:19:09.903Z,102213.91
2022-12-02T03:21:36.624Z,102213.97
2022-12-02T03:24:04.854Z,102200.28
2022-12-02T03:26:33.429Z,102201.97
2022-12-02T03:29:01.837Z,102197.72
2022-12-02T03:31:28.795Z,102196.84
2022-12-02T03:33:55.938Z,102199.44
2022-12-02T03:36:23.210Z,102197.78
2022-12-02T03:38:50.249Z,102192.53
2022-12-02T03:41:17.403Z,102195.97
2022-12-02T03:43:44.116Z,102190.88
2022-12-02T03:46:10.979Z,102184.88
2022-12-02T03:48:39.263Z,102187.44
2022-12-02T03:51:07.008Z,102185.72
2022-12-02T03:53:34.833Z,102190.00
2022-12-02T03:56:06.387Z,102192.63
2022-12-02T03:58:53.428Z,102182.31
2022-12-02T04:01:21.816Z,102188.31
2022-12-02T04:03:48.776Z,102183.13
2022-12-02T04:06:15.433Z,102177.13
2022-12-02T04:08:41.960Z,102178.84
2022-12-02T04:11:08.521Z,102179.69
2022-12-02T04:13:35.078Z,102175.38
2022-12-02T04:16:01.694Z,102175.34
2022-12-02T04:18:29.272Z,102173.63
2022-12-02T04:20:55.809Z,102177.91
2022-12-02T04:23:22.385Z,102173.59
2022-12-02T04:25:48.927Z,102165.03
2022-12-02T04:28:15.411Z,102162.44
2022-12-02T04:30:41.894Z,102161.63
2022-12-02T04:33:08.428Z,102159.06
2022-12-02T04:35:34.883Z,102157.41
2022-12-02T04:38:01.455Z,102161.63
2022-12-02T04:40:27.932Z,102153.88
2022-12-02T04:42:54.520Z,102155.59
2022-12-02T04:45:20.997Z,102157.31
2022-12-02T04:47:47.512Z,102144.50
2022-12-02T04:50:14.157Z,102153.06
2022-12-02T04:52:40.692Z,102146.22
2022-12-02T04:55:07.736Z,102151.41
2022-12-02T04:57:34.236Z,102144.47
2022-12-02T05:00:00.878Z,102150.50
2022-12-02T05:02:27.494Z,102143.69
2022-12-02T05:04:54.353Z,102140.25
2022-12-02T05:07:21.124Z,102146.31
2022-12-02T05:09:47.689Z,102140.25
2022-12-02T05:12:14.491Z,102141.06
2022-12-02T05:14:41.002Z,102137.69
2022-12-02T05:17:07.467Z,102129.13
2022-12-02T05:19:33.988Z,102115.41
2022-12-02T05:22:00.659Z,102122.22
2022-12-02T05:24:29.621Z,102127.41
2022-12-02T05:26:58.672Z,102125.66
2022-12-02T05:29:25.277Z,102129.13
2022-12-02T05:31:54.786Z,102124.84
2022-12-02T05:34:21.394Z,102119.66
2022-12-02T05:36:48.154Z,102117.97
2022-12-02T05:39:14.727Z,102112.78
2022-12-02T05:41:41.191Z,102111.94
2022-12-02T05:44:22.814Z,102109.38
2022-12-02T05:46:50.367Z,102117.09
2022-12-02T05:49:20.767Z,102113.66
2022-12-02T05:51:58.751Z,102115.31
2022-12-02T05:54:26.900Z,102126.47
2022-12-02T05:56:53.779Z,102127.31
2022-12-02T05:59:22.157Z,102113.56
2022-12-02T06:01:51.969Z,102116.97
2022-12-02T06:04:26.939Z,102120.41
2022-12-02T06:06:54.704Z,102122.13
2022-12-02T06:09:26.069Z,102121.22
2022-12-02T06:11:53.301Z,102126.31
2022-12-02T06:14:23.347Z,102124.59
2022-12-02T06:16:55.996Z,102119.41
2022-12-02T06:19:57.114Z,102127.13
2022-12-02T06:22:27.676Z,102134.88
2022-12-02T06:24:56.133Z,102129.72
2022-12-02T06:27:23.134Z,102138.19
2022-12-02T06:29:55.984Z,102129.63
2022-12-02T06:32:25.018Z,102121.09
2022-12-02T06:34:52.647Z,102127.97
2022-12-02T06:37:24.698Z,102122.81
2022-12-02T06:42:43.530Z,102120.31
2022-12-02T06:45:28.914Z,102118.59
2022-12-02T06:48:26.263Z,102120.19
2022-12-02T06:50:53.378Z,102121.06
2022-12-02T06:53:38.486Z,102115.06
2022-12-02T06:56:14.426Z,102110.88
2022-12-02T06:58:46.623Z,102107.41
2022-12-02T07:01:13.127Z,102114.19
2022-12-02T07:03:47.660Z,102119.28
2022-12-02T07:06:25.179Z,102120.13
2022-12-02T07:08:57.378Z,102123.50
2022-12-02T07:11:49.815Z,102127.84
2022-12-02T07:14:23.534Z,102129.50
2022-12-02T07:16:51.637Z,102132.84
2022-12-02T07:19:36.933Z,102133.72
2022-12-02T07:22:13.366Z,102128.63
2022-12-02T07:24:40.973Z,102131.22
2022-12-02T07:27:32.080Z,102129.56
2022-12-02T07:30:00.436Z,102127.16
2022-12-02T07:32:27.283Z,102125.47
2022-12-02T07:34:54.209Z,102132.41
2022-12-02T07:37:21.339Z,102123.03
2022-12-02T07:39:47.869Z,102131.63
2022-12-02T07:42:14.980Z,102125.66
2022-12-02T07:44:41.651Z,102124.78
2022-12-02T07:47:08.335Z,102119.66
2022-12-02T07:49:35.280Z,102127.34
2022-12-02T07:52:01.783Z,102119.66
2022-12-02T07:54:28.286Z,102113.69
2022-12-02T07:56:54.826Z,102113.75
2022-12-02T07:59:21.365Z,102117.16
2022-12-02T08:01:48.009Z,102122.31
2022-12-02T08:04:14.769Z,102120.59
2022-12-02T08:06:41.396Z,102115.44
2022-12-02T08:09:14.578Z,102116.31
2022-12-02T08:11:41.213Z,102112.91
2022-12-02T08:14:07.794Z,102114.63
2022-12-02T08:16:34.689Z,102112.91
2022-12-02T08:19:01.506Z,102118.97
2022-12-02T08:21:28.906Z,102114.66
2022-12-02T08:23:55.394Z,102116.28
2022-12-02T08:26:21.948Z,102111.97
2022-12-02T08:28:53.684Z,102111.13
2022-12-02T08:31:20.959Z,102115.38
2022-12-02T08:33:47.532Z,102121.41
2022-12-02T08:36:15.326Z,102112.75
2022-12-02T08:38:42.489Z,102118.75
2022-12-02T08:41:13.757Z,102113.56
2022-12-02T08:43:41.624Z,102117.00
2022-12-02T08:46:08.762Z,102113.59
2022-12-02T08:48:35.597Z,102116.16
2022-12-02T08:51:02.353Z,102118.66
2022-12-02T08:53:28.877Z,102112.66
2022-12-02T08:55:55.445Z,102120.31
2022-12-02T08:58:22.019Z,102110.88
2022-12-02T09:00:48.538Z,102113.41
2022-12-02T09:03:15.105Z,102123.72
2022-12-02T09:05:41.972Z,102115.97
2022-12-02T09:08:08.775Z,102131.44
2022-12-02T09:10:36.444Z,102117.69
2022-12-02T09:13:03.193Z,102125.44
2022-12-02T09:15:29.798Z,102122.06
2022-12-02T09:17:56.346Z,102121.22
2022-12-02T09:20:22.949Z,102123.78
2022-12-02T09:22:49.559Z,102118.66
2022-12-02T09:25:16.309Z,102123.78
2022-12-02T09:27:43.866Z,102128.88
2022-12-02T09:30:11.246Z,102118.59
2022-12-02T09:32:37.746Z,102115.22
2022-12-02T09:35:04.691Z,102126.25
2022-12-02T09:37:31.252Z,102113.44
2022-12-02T09:39:57.881Z,102113.47
2022-12-02T09:42:24.755Z,102116.97
2022-12-02T09:44:51.915Z,102111.84
2022-12-02T09:47:19.167Z,102105.78
2022-12-02T09:49:46.232Z,102106.59
2022-12-02T09:52:21.106Z,102110.09
2022-12-02T09:54:57.233Z,102113.56
2022-12-02T09:57:29.627Z,102108.38
2022-12-02T09:59:58.284Z,102121.16
2022-12-02T10:02:37.862Z,102116.06
2022-12-02T10:05:12.996Z,102123.72
2022-12-02T10:07:39.545Z,102110.03
2022-12-02T10:10:06.805Z,102114.38
2022-12-02T10:12:34.142Z,102115.16
2022-12-02T10:15:00.742Z,102112.53
2022-12-02T10:17:27.475Z,102116.81
2022-12-02T10:19:53.991Z,102122.88
2022-12-02T10:22:21.781Z,102117.69
2022-12-02T10:24:49.905Z,102114.31
2022-12-02T10:27:27.411Z,102113.44
2022-12-02T10:29:54.079Z,102110.84
2022-12-02T10:32:24.527Z,102105.75
2022-12-02T10:35:10.946Z,102107.50
2022-12-02T10:37:38.132Z,102115.97
2022-12-02T10:40:17.463Z,102101.41
2022-12-02T10:42:45.235Z,102097.09
2022-12-02T10:45:23.926Z,102104.84
2022-12-02T10:47:51.495Z,102101.41
2022-12-02T10:50:19.794Z,102098.00
2022-12-02T10:52:52.561Z,102097.09
2022-12-02T10:55:20.527Z,102095.38
2022-12-02T10:57:48.177Z,102095.41
2022-12-02T11:00:17.165Z,102089.44
2022-12-02T11:02:47.330Z,102078.25
2022-12-02T11:05:17.765Z,102082.56
2022-12-02T11:08:00.118Z,102080.06
2022-12-02T11:10:37.097Z,102080.06
2022-12-02T11:13:13.114Z,102079.16
2022-12-02T11:15:42.072Z,102075.72
2022-12-02T11:18:31.999Z,102075.78
2022-12-02T11:21:01.532Z,102081.72
2022-12-02T11:23:29.731Z,102075.66
2022-12-02T11:26:04.116Z,102069.56
2022-12-02T11:28:30.511Z,102069.56
2022-12-02T11:31:12.739Z,102067.06
2022-12-02T11:33:53.070Z,102067.91
2022-12-02T11:36:26.247Z,102061.94
2022-12-02T11:38:52.651Z,102066.25
2022-12-02T11:41:21.602Z,102062.81
2022-12-02T11:43:48.034Z,102058.53
2022-12-02T11:46:16.886Z,102056.78
2022-12-02T11:48:50.005Z,102066.25
2022-12-02T11:51:28.810Z,102053.41
2022-12-02T11:53:55.704Z,102058.53
2022-12-02T11:56:22.699Z,102050.88
2022-12-02T11:58:49.337Z,102054.31
2022-12-02T12:01:19.380Z,102039.75
2022-12-02T12:03:51.300Z,102037.28
2022-12-02T12:06:20.051Z,102029.56
2022-12-02T12:08:49.869Z,102033.88
2022-12-02T12:11:35.153Z,102032.16
2022-12-02T12:14:13.866Z,102026.19
2022-12-02T12:16:47.627Z,102034.75
2022-12-02T12:19:15.242Z,102036.41
2022-12-02T12:21:48.402Z,102032.09
2022-12-02T12:24:18.276Z,102030.34
2022-12-02T12:26:49.022Z,102035.47
2022-12-02T12:29:16.628Z,102032.91
2022-12-02T12:31:43.951Z,102029.44
2022-12-02T12:34:11.609Z,102040.50
2022-12-02T12:36:38.649Z,102015.69
2022-12-02T12:39:07.101Z,102008.78
2022-12-02T12:44:20.066Z,102019.06
2022-12-02T12:46:46.495Z,102007.13
2022-12-02T12:49:13.003Z,102011.41
2022-12-02T12:51:39.496Z,102013.97
2022-12-02T12:54:06.100Z,102016.63
2022-12-02T12:56:32.833Z,102025.19
2022-12-02T12:58:59.292Z,102017.44
2022-12-02T13:01:25.818Z,102019.16
2022-12-02T13:03:52.574Z,102020.91
2022-12-02T13:06:21.110Z,102018.31
2022-12-02T13:08:47.646Z,102011.50
2022-12-02T13:11:14.142Z,102011.50
2022-12-02T13:13:40.717Z,102005.53
2022-12-02T13:16:07.425Z,102012.38
2022-12-02T13:18:33.872Z,102005.53
2022-12-02T13:21:00.786Z,102010.69
2022-12-02T13:23:27.230Z,102008.97
2022-12-02T13:25:53.680Z,102008.97
2022-12-02T13:28:20.373Z,102009.78
2022-12-02T13:30:46.898Z,102012.38
2022-12-02T13:33:13.438Z,102000.34
2022-12-02T13:35:39.948Z,102006.34
2022-12-02T13:38:06.929Z,102008.03
2022-12-02T13:40:33.438Z,102002.88
2022-12-02T13:42:59.863Z,102008.88
2022-12-02T13:45:28.103Z,101999.44
2022-12-02T13:47:55.025Z,102002.03
2022-12-02T13:50:21.597Z,102005.41
2022-12-02T13:52:48.089Z,102001.94
2022-12-02T13:55:14.650Z,102009.63
2022-12-02T13:57:41.080Z,102007.94
2022-12-02T14:00:08.249Z,102023.38
2022-12-02T14:02:34.731Z,102024.25
2022-12-02T14:05:05.944Z,102021.66
2022-12-02T14:07:34.658Z,102016.50
2022-12-02T14:10:01.110Z,102025.06
2022-12-02T14:12:27.565Z,102025.03
2022-12-02T14:14:54.416Z,102022.47
2022-12-02T14:17:22.298Z,102023.34
2022-12-02T14:19:52.421Z,102025.91
2022-12-02T14:22:18.938Z,102025.00
2022-12-02T14:24:48.731Z,102019.91
2022-12-02T14:27:16.027Z,102023.38
2022-12-02T14:29:42.551Z,102021.69
2022-12-02T14:32:09.065Z,102032.75
2022-12-02T14:34:35.573Z,102021.56
2022-12-02T14:37:02.026Z,102032.66
2022-12-02T14:39:28.659Z,102040.34
2022-12-02T14:41:55.122Z,102048.88
2022-12-02T14:44:21.581Z,102037.78
2022-12-02T14:46:48.177Z,102033.50
2022-12-02T14:52:01.596Z,102032.66
2022-12-02T14:54:28.099Z,102030.06
2022-12-02T14:56:54.583Z,102030.94
2022-12-02T14:59:21.166Z,102037.78
2022-12-02T15:01:47.727Z,102031.78
2022-12-02T15:04:14.842Z,102037.78
2022-12-02T15:06:41.341Z,102044.63
2022-12-02T15:09:07.926Z,102040.34
2022-12-02T15:11:34.383Z,102038.69
2022-12-02T15:14:00.806Z,102043.78
2022-12-02T15:16:27.610Z,102040.31
2022-12-02T15:18:54.295Z,102040.28
2022-12-02T15:21:20.746Z,102047.13
2022-12-02T15:23:47.393Z,102059.13
2022-12-02T15:26:16.142Z,102056.56
2022-12-02T15:28:42.615Z,102048.00
2022-12-02T15:31:09.179Z,102054.03
2022-12-02T15:33:35.734Z,102053.97
2022-12-02T15:36:02.199Z,102051.38
2022-12-02T15:38:29.942Z,102051.38
2022-12-02T15:40:56.830Z,102051.38
2022-12-02T15:43:23.282Z,102052.22
2022-12-02T15:45:50.130Z,102053.97
2022-12-02T15:48:16.633Z,102065.06
2022-12-02T15:50:43.157Z,102050.56
2022-12-02T15:53:10.068Z,102054.78
2022-12-02T15:55:36.801Z,102071.00
2022-12-02T15:58:03.553Z,102059.00
2022-12-02T16:00:30.293Z,102059.84
2022-12-02T16:02:56.964Z,102059.00
2022-12-02T16:05:24.170Z,102059.84
2022-12-02T16:07:50.800Z,102060.72
2022-12-02T16:10:17.627Z,102057.31
2022-12-02T16:12:44.226Z,102070.06
2022-12-02T16:15:10.886Z,102080.34
2022-12-02T16:17:37.666Z,102064.94
2022-12-02T16:20:05.460Z,102067.53
2022-12-02T16:22:31.989Z,102068.41
2022-12-02T16:24:58.451Z,102068.41
2022-12-02T16:27:25.014Z,102069.22
2022-12-02T16:29:51.559Z,102075.25
2022-12-02T16:32:20.530Z,102070.13
2022-12-02T16:34:47.411Z,102075.25
2022-12-02T16:37:17.430Z,102081.25
2022-12-02T16:39:44.051Z,102083.81
2022-12-02T16:42:10.872Z,102084.72
2022-12-02T16:44:37.305Z,102082.09
2022-12-02T16:47:04.402Z,102080.34
2022-12-02T16:49:31.109Z,102080.28
2022-12-02T16:51:58.653Z,102077.75
2022-12-02T16:54:26.011Z,102088.88
2022-12-02T16:56:55.922Z,102090.59
2022-12-02T16:59:23.843Z,102087.16
2022-12-02T17:01:50.637Z,102089.75
2022-12-02T17:04:17.198Z,102090.59
2022-12-02T17:06:44.054Z,102092.31
2022-12-02T17:09:10.911Z,102083.72
2022-12-02T17:11:37.966Z,102089.69
2022-12-02T17:14:04.469Z,102088.81
2022-12-02T17:16:30.981Z,102096.44
2022-12-02T17:18:57.550Z,102087.03
2022-12-02T17:21:24.008Z,102094.66
2022-12-02T17:23:50.563Z,102105.84
2022-12-02T17:26:19.296Z,102089.53
2022-12-02T17:28:46.212Z,102096.38
2022-12-02T17:31:12.686Z,102095.50
2022-12-02T17:33:39.280Z,102098.97
2022-12-02T17:36:06.248Z,102098.09
2022-12-02T17:38:32.691Z,102100.72
2022-12-02T17:41:11.074Z,102103.28
2022-12-02T17:43:38.463Z,102104.13
2022-12-02T17:46:06.104Z,102114.34
2022-12-02T17:48:32.902Z,102093.00
2022-12-02T17:50:59.332Z,102107.53
2022-12-02T17:53:25.887Z,102105.78
2022-12-02T17:55:52.394Z,102106.63
2022-12-02T17:58:18.873Z,102125.50
2022-12-02T18:00:45.584Z,102112.63
2022-12-02T18:03:12.489Z,102110.97
2022-12-02T18:05:39.049Z,102108.34
2022-12-02T18:08:05.843Z,102108.34
2022-12-02T18:10:32.509Z,102107.41
2022-12-02T18:12:58.991Z,102110.81
2022-12-02T18:15:25.589Z,102109.03
2022-12-02T18:17:52.191Z,102105.69
2022-12-02T18:20:18.775Z,102107.31
2022-12-02T18:22:45.883Z,102107.31
2022-12-02T18:25:12.845Z,102109.88
2022-12-02T18:27:39.385Z,102104.78
2022-12-02T18:30:07.520Z,102115.88
2022-12-02T18:32:35.396Z,102110.75
2022-12-02T18:35:01.838Z,102104.75
2022-12-02T18:37:28.307Z,102104.72
2022-12-02T18:39:55.028Z,102109.03
2022-12-02T18:42:21.605Z,102105.59
2022-12-02T18:44:48.355Z,102103.06
2022-12-02T18:47:14.865Z,102093.69
2022-12-02T18:49:42.888Z,102103.09
2022-12-02T18:52:10.098Z,102098.75
2022-12-02T18:54:36.705Z,102097.91
2022-12-02T18:57:03.695Z,102093.69
2022-12-02T18:59:30.291Z,102097.13
2022-12-02T19:01:57.106Z,102087.66
2022-12-02T19:04:23.833Z,102096.25
2022-12-02T19:06:50.294Z,102097.13
2022-12-02T19:09:16.775Z,102098.84
2022-12-02T19:11:43.233Z,102099.56
2022-12-02T19:14:09.723Z,102097.00
2022-12-02T19:16:36.287Z,102096.97
2022-12-02T19:19:02.806Z,102095.06
2022-12-02T19:21:29.459Z,102096.78
2022-12-02T19:23:56.069Z,102089.13
2022-12-02T19:26:23.285Z,102089.88
2022-12-02T19:28:50.022Z,102098.41
2022-12-02T19:31:16.630Z,102093.28
2022-12-02T19:33:43.290Z,102092.38
2022-12-02T19:36:09.809Z,102096.50
2022-12-02T19:38:36.488Z,102093.88
2022-12-02T19:41:03.063Z,102091.25
2022-12-02T19:43:34.023Z,102092.19
2022-12-02T19:46:01.999Z,102093.88
2022-12-02T19:48:28.605Z,102090.44
2022-12-02T19:50:55.056Z,102093.78
2022-12-02T19:53:21.711Z,102083.53
2022-12-02T19:55:48.183Z,102080.09
2022-12-02T19:58:14.726Z,102084.41
2022-12-02T20:00:41.433Z,102089.63
2022-12-02T20:03:08.002Z,102099.88
2022-12-02T20:05:34.635Z,102096.44
2022-12-02T20:08:01.145Z,102090.47
2022-12-02T20:10:27.714Z,102094.81
2022-12-02T20:12:54.162Z,102094.75
2022-12-02T20:15:20.737Z,102087.91
2022-12-02T20:17:47.181Z,102090.53
2022-12-02T20:20:14.653Z,102086.31
2022-12-02T20:22:42.038Z,102090.63
2022-12-02T20:25:09.310Z,102084.59
2022-12-02T20:27:35.821Z,102082.88
2022-12-02T20:30:02.645Z,102089.69
2022-12-02T20:32:29.152Z,102087.03
2022-12-02T20:34:55.785Z,102087.03
2022-12-02T20:37:22.353Z,102082.75
2022-12-02T20:39:49.216Z,102081.06
2022-12-02T20:42:15.728Z,102083.69
2022-12-02T20:44:42.202Z,102084.56
2022-12-02T20:47:09.543Z,102084.41
2022-12-02T20:49:36.097Z,102089.53
2022-12-02T20:52:02.987Z,102083.53
2022-12-02T20:54:29.457Z,102079.34
2022-12-02T20:56:57.678Z,102081.06
2022-12-02T20:59:24.248Z,102077.72
2022-12-02T21:01:50.818Z,102080.34
2022-12-02T21:04:17.325Z,102078.69
2022-12-02T21:06:43.835Z,102082.03
2022-12-02T21:09:10.317Z,102083.72
2022-12-02T21:11:37.496Z,102080.28
2022-12-02T21:14:04.267Z,102086.19
2022-12-02T21:16:30.807Z,102084.53
2022-12-02T21:18:57.370Z,102081.16
2022-12-02T21:21:23.858Z,102077.75
2022-12-02T21:23:50.390Z,102075.19
2022-12-02T21:26:17.124Z,102078.66
2022-12-02T21:28:43.633Z,102079.47
2022-12-02T21:31:10.870Z,102073.53
2022-12-02T21:33:37.439Z,102076.97
2022-12-02T21:36:04.366Z,102078.69
2022-12-02T21:38:30.933Z,102065.00
2022-12-02T21:40:57.505Z,102065.84
2022-12-02T21:43:24.024Z,102071.75
2022-12-02T21:45:50.490Z,102071.75
2022-12-02T21:48:17.406Z,102072.69
2022-12-02T21:50:43.895Z,102078.59
2022-12-02T21:53:12.906Z,102076.91
2022-12-02T21:55:39.415Z,102075.19
2022-12-02T21:58:06.543Z,102076.91
2022-12-02T22:00:33.175Z,102070.13
2022-12-02T22:02:59.795Z,102075.19
2022-12-02T22:05:26.241Z,102076.03
2022-12-02T22:07:53.038Z,102076.94
2022-12-02T22:10:22.312Z,102080.31
2022-12-02T22:12:49.763Z,102076.97
2022-12-02T22:15:19.703Z,102074.41
2022-12-02T22:17:46.802Z,102077.88
2022-12-02T22:20:14.925Z,102073.63
2022-12-02T22:22:41.544Z,102079.56
2022-12-02T22:25:10.057Z,102081.25
2022-12-02T22:27:36.566Z,102083.81
2022-12-02T22:30:05.486Z,102082.19
2022-12-02T22:32:31.925Z,102091.59
2022-12-02T22:34:58.482Z,102088.19
2022-12-02T22:37:24.943Z,102083.06
2022-12-02T22:39:51.539Z,102081.28
2022-12-02T22:42:18.333Z,102082.94
2022-12-02T22:44:44.916Z,102085.44
2022-12-02T22:47:11.580Z,102088.88
2022-12-02T22:49:38.340Z,102089.78
2022-12-02T22:52:04.939Z,102094.06
2022-12-02T22:54:31.389Z,102088.91
2022-12-02T22:56:58.037Z,102089.78
2022-12-02T22:59:26.848Z,102094.81
2022-12-02T23:01:53.400Z,102081.94
2022-12-02T23:04:20.566Z,102078.50
2022-12-02T23:06:47.093Z,102088.81
2022-12-02T23:09:13.870Z,102090.56
2022-12-02T23:11:40.570Z,102080.38
2022-12-02T23:14:07.499Z,102077.81
2022-12-02T23:16:34.696Z,102078.66
2022-12-02T23:19:01.436Z,102074.34
2022-12-02T23:21:28.006Z,102065.75
2022-12-02T23:23:54.479Z,102071.66
2022-12-02T23:26:21.621Z,102061.47
2022-12-02T23:28:48.163Z,102069.19
2022-12-02T23:31:14.756Z,102059.03
2022-12-02T23:33:41.435Z,102054.75
2022-12-02T23:36:08.258Z,102038.44
2022-12-02T23:38:34.809Z,102049.59
2022-12-02T23:41:01.304Z,102055.53
2022-12-02T23:43:28.793Z,102046.13
2022-12-02T23:45:55.378Z,102044.47
2022-12-02T23:48:21.935Z,102034.25
2022-12-02T23:50:48.558Z,102041.88
2022-12-02T23:53:15.053Z,102041.06
2022-12-02T23:55:41.495Z,102039.44
2022-12-02T23:58:07.963Z,102036.78
